Saint-Lin, Canada
Current Conditions -  °F | °C
As of 9:00 PM on Tuesday 21 Oct 2014 (Local Time) from CYMX Reporting Station
Overcast Overcast  
Wind Chill: 41°   Ceiling: 4000
Heat Index: 45°   Visibility: 25mi
Dew Point: 28°   Wind: 6mph
Humidity: 53%   Direction: 40°NE
Pressure: 30.16"   Gusts: NA
Location:  45.85°N, 73.77°W
Report Text: CYMX 220100Z 04005KT 360V080 25SM BKN040 OVC050 07/M02 A3016 RMK SC5SC3 SLP216
Loading
Personal Weather Stations






























Interactive Weather Map New forecast layout! Learn more

10-Day Weather Forecast

Advertisements
Track Severe Weather on mobile